Impacts TAF Board
For situational awareness. Not to be used for flight planning purposes.
IDs:

KMSP - Minneapolis-St Paul, MN, US

Issued at 2339 UTC 04 Jul 2022
Updated at 0050 UTC 05 Jul 2022
Potential Impact None Slight Moderate High
Time2353Z 05/01Z 05/02Z 05/03Z 05/04Z 05/05Z 05/06Z 05/07Z 05/08Z 05/09Z 05/10Z 05/11Z 05/12Z 05/13Z>>
Type OBS PRVL PRVL PRVL PRVL PRVL PRVL PRVL PRVL PRVL
  [TEMP]  
PRVL
  [TEMP]  
PRVL
  [TEMP]  
PRVL
  [TEMP]  
PRVL
VIS 10 >6 >6 >6 >6 >6 4 4 4 2
  [0.5]  
2
  [0.5]  
2
  [0.5]  
2
  [0.5]  
6
CIG 41 40 -- -- -- -- -- -- -- 22
  [5]  
22
  [5]  
22
  [5]  
22
  [5]  
15
Cover BKN BKN SKC SKC SKC SKC SCT SCT SCT BKN
  [OVX]  
BKN
  [OVX]  
BKN
  [OVX]  
BKN
  [OVX]  
BKN
FltCat VFR VFR VFR VFR VFR VFR MVFR MVFR MVFR IFR
  [LIFR]  
IFR
  [LIFR]  
IFR
  [LIFR]  
IFR
  [LIFR]  
MVFR
WX -- -- -- -- -- -- BR BR BR BR
  [FG]  
BR
  [FG]  
BR
  [FG]  
BR
  [FG]  
BR
WDir 260 VRB VRB VRB VRB VRB VRB VRB VRB VRB
[VRB]
VRB
[VRB]
VRB
[VRB]
VRB
[VRB]
VRB
WSpd 6 5 3 3 3 3 0 0 0 0
  [0]  
0
  [0]  
0
  [0]  
0
  [0]  
3
WGst -- -- -- -- -- -- -- -- -- --
  [--]  
--
  [--]  
--
  [--]  
--
  [--]  
--
WSHgt -- -- -- -- -- -- -- -- -- --
[--]
--
[--]
--
[--]
--
[--]
--
WSDir -- -- -- -- -- -- -- -- -- --
[--]
--
[--]
--
[--]
--
[--]
--
WSSpd -- -- -- -- -- -- -- -- -- --
[--]
--
[--]
--
[--]
--
[--]
--
Raw TAF
KMSP 042339Z 0500/0606 VRB05KT P6SM FEW025 BKN040
  FM050200 VRB03KT P6SM SKC
  FM050600 00000KT 4SM BR SCT035
  FM050900 00000KT 2SM BR SCT005 BKN022
  TEMPO 0509/0513 1/2SM FG VV005
  FM051300 VRB03KT 6SM BR BKN015
  FM051600 03005KT P6SM SCT045


Raw METAR
KMSP 042353Z 26006KT 10SM BKN041 30/20 A2981 RMK AO2 SLP089 T03000200 10306 20244 56002
KMSP 042253Z VRB04KT 10SM BKN036 31/20 A2981 RMK AO2 SLP089 T03060200
KMSP 042153Z VRB03KT 10SM BKN035 28/20 A2981 RMK AO2 SLP089 T02830200

METAR Board
Radar Display
Forecast Discussion
For situational awareness. Not to be used for flight planning purposes.